Time;durP1;ratioP1;P1;durP2;ratioP2;P2;SDS_P1;SDS_P2;PMS_P1;PMS_P2;Temp;Humidity;BMP_temperature;BMP_pressure;BME280_temperature;BME280_humidity;BME280_pressure;Samples;Min_cycle;Max_cycle;Signal;HPM_P1;HPM_P2
2022/06/08 00:00:15;;;;;;;2.50;2.07;;;15.30;99.90;;;;;;5095585;28;20205;-71
2022/06/08 00:02:45;;;;;;;1.50;1.40;;;15.30;99.90;;;;;;5112950;28;20212;-71
2022/06/08 00:05:12;;;;;;;1.57;1.47;;;15.30;99.90;;;;;;5109315;28;20294;-71
2022/06/08 00:07:41;;;;;;;1.87;1.50;;;15.30;99.90;;;;;;5120506;27;20201;-73
2022/06/08 00:10:09;;;;;;;1.80;1.70;;;15.30;99.90;;;;;;5109437;28;20630;-71
2022/06/08 00:12:37;;;;;;;1.90;1.70;;;15.30;99.90;;;;;;5112731;28;20643;-71
2022/06/08 00:15:06;;;;;;;1.60;1.50;;;15.30;99.90;;;;;;5106229;28;20229;-71
2022/06/08 00:17:33;;;;;;;1.87;1.60;;;15.30;99.90;;;;;;5107920;28;20270;-71
2022/06/08 00:20:00;;;;;;;1.90;1.80;;;15.30;99.90;;;;;;5104563;28;20205;-71
2022/06/08 00:22:27;;;;;;;1.90;1.80;;;15.20;99.90;;;;;;5106967;28;20533;-71
2022/06/08 00:24:56;;;;;;;2.27;2.07;;;15.10;99.90;;;;;;5106336;28;20206;-71
2022/06/08 00:27:23;;;;;;;2.23;1.93;;;14.90;99.90;;;;;;5105464;28;20284;-71
2022/06/08 00:29:50;;;;;;;1.97;1.87;;;14.80;99.90;;;;;;5106503;28;20255;-71
2022/06/08 00:32:17;;;;;;;2.17;2.00;;;14.80;99.90;;;;;;5111639;28;20200;-71
2022/06/08 00:34:44;;;;;;;2.23;2.03;;;15.00;99.90;;;;;;5109055;28;20221;-71
2022/06/08 00:37:11;;;;;;;2.40;2.17;;;14.90;99.90;;;;;;5112091;28;20626;-71
2022/06/08 00:39:38;;;;;;;2.53;2.33;;;14.90;99.90;;;;;;5110397;28;20212;-71
2022/06/08 00:42:10;;;;;;;2.93;2.33;;;14.90;99.90;;;;;;5110538;28;20683;-70
2022/06/08 00:44:40;;;;;;;2.58;2.38;;;15.00;99.90;;;;;;5111194;28;20197;-71
2022/06/08 00:47:10;;;;;;;3.33;2.20;;;15.00;99.90;;;;;;5109930;28;20197;-71
2022/06/08 00:49:41;;;;;;;2.37;2.00;;;15.20;99.90;;;;;;5107669;28;20718;-71
2022/06/08 00:52:08;;;;;;;2.70;2.30;;;15.20;99.90;;;;;;5100093;28;20197;-71
2022/06/08 00:54:38;;;;;;;2.57;2.27;;;15.10;99.90;;;;;;5093295;28;20231;-71
2022/06/08 00:57:11;;;;;;;2.10;2.00;;;15.10;99.90;;;;;;5098146;28;20197;-71
2022/06/08 00:59:42;;;;;;;2.30;2.17;;;15.20;99.90;;;;;;5103082;28;20200;-71
2022/06/08 01:02:09;;;;;;;2.20;2.00;;;15.20;99.90;;;;;;5111987;28;20284;-71
2022/06/08 01:04:36;;;;;;;2.20;2.10;;;15.20;99.90;;;;;;5102274;28;20404;-71
2022/06/08 01:07:05;;;;;;;2.47;1.75;;;15.20;99.90;;;;;;5108933;28;20201;-71
2022/06/08 01:09:36;;;;;;;2.42;2.22;;;15.10;99.90;;;;;;5097407;28;20206;-71
2022/06/08 01:12:09;;;;;;;1.90;1.80;;;15.10;99.90;;;;;;5108892;28;20228;-71
2022/06/08 01:14:36;;;;;;;2.13;2.00;;;15.20;99.90;;;;;;5105304;28;20262;-71
2022/06/08 01:17:08;;;;;;;2.53;2.33;;;15.10;99.90;;;;;;5103756;28;20209;-71
2022/06/08 01:19:36;;;;;;;2.22;2.08;;;15.00;99.90;;;;;;5110099;27;20197;-71
2022/06/08 01:22:06;;;;;;;3.07;2.50;;;15.00;99.90;;;;;;5113434;27;20651;-71
2022/06/08 01:24:35;;;;;;;2.57;2.30;;;15.00;99.90;;;;;;5107903;28;20267;-71
2022/06/08 01:27:28;;;;;;;2.30;2.10;;;15.10;99.90;;;;;;5105906;28;20842;-71
2022/06/08 01:30:10;;;;;;;2.80;2.60;;;15.20;99.90;;;;;;5104300;28;20205;-71
2022/06/08 01:32:42;;;;;;;2.75;2.55;;;15.20;99.90;;;;;;5109717;28;20233;-71
2022/06/08 01:35:22;;;;;;;2.70;2.50;;;15.20;99.90;;;;;;5103484;27;20197;-71
2022/06/08 01:38:01;;;;;;;4.27;2.77;;;15.30;99.90;;;;;;5097553;28;20220;-71
2022/06/08 01:41:04;;;;;;;2.83;2.63;;;15.30;99.90;;;;;;5110692;28;20196;-71
2022/06/08 01:43:43;;;;;;;3.08;2.78;;;15.40;99.90;;;;;;5095648;28;20209;-70
2022/06/08 01:46:21;;;;;;;2.63;2.42;;;15.40;99.90;;;;;;5111044;28;20287;-71
2022/06/08 01:49:06;;;;;;;2.70;2.50;;;15.30;99.90;;;;;;5110496;28;20651;-70
2022/06/08 01:51:54;;;;;;;2.90;2.70;;;15.30;99.90;;;;;;5111433;28;20603;-71
2022/06/08 01:54:39;;;;;;;3.00;2.70;;;15.30;99.90;;;;;;5109376;28;20262;-71
2022/06/08 01:57:15;;;;;;;2.70;2.50;;;15.20;99.90;;;;;;5091466;28;20201;-71
2022/06/08 01:59:47;;;;;;;3.28;2.45;;;15.20;99.90;;;;;;5105493;28;20839;-71
2022/06/08 02:02:26;;;;;;;2.38;2.22;;;15.20;99.90;;;;;;5096839;28;20269;-71
2022/06/08 02:04:57;;;;;;;3.63;2.97;;;15.20;99.90;;;;;;5110684;28;20261;-71
2022/06/08 02:07:35;;;;;;;2.93;2.67;;;15.20;99.90;;;;;;5107736;28;20619;-71
2022/06/08 02:10:14;;;;;;;3.35;3.15;;;15.20;99.90;;;;;;5108535;28;20276;-71
2022/06/08 02:12:46;;;;;;;3.65;3.35;;;15.30;99.90;;;;;;5091361;28;20202;-71
2022/06/08 02:15:17;;;;;;;4.03;3.70;;;15.20;99.90;;;;;;5109534;28;20257;-71
2022/06/08 02:17:48;;;;;;;5.53;3.95;;;15.10;99.90;;;;;;5108057;28;20228;-71
2022/06/08 02:20:21;;;;;;;3.85;3.22;;;15.00;99.90;;;;;;5100323;28;20458;-71
2022/06/08 02:22:52;;;;;;;3.25;3.05;;;15.00;99.90;;;;;;5109756;28;20205;-71
2022/06/08 02:25:26;;;;;;;3.40;2.95;;;15.00;99.90;;;;;;5106737;27;20225;-71
2022/06/08 02:27:59;;;;;;;8.13;3.58;;;15.00;99.90;;;;;;5114550;27;20207;-71
2022/06/08 02:30:29;;;;;;;4.97;3.55;;;14.80;99.90;;;;;;5115762;28;20209;-71
2022/06/08 02:35:50;;;;;;;4.90;3.30;;;14.60;99.90;;;;;;5118293;27;20289;-71
2022/06/08 02:38:21;;;;;;;3.80;3.40;;;14.70;99.90;;;;;;5103246;28;20268;-71
2022/06/08 02:40:53;;;;;;;3.50;3.22;;;14.90;99.90;;;;;;5109223;28;20269;-71
2022/06/08 02:43:25;;;;;;;6.05;3.30;;;14.90;99.90;;;;;;5104896;28;20194;-71
2022/06/08 02:45:59;;;;;;;4.43;3.60;;;14.80;99.90;;;;;;5117483;28;20242;-71
2022/06/08 02:48:26;;;;;;;4.00;3.53;;;14.70;99.90;;;;;;5098224;28;20205;-71
2022/06/08 02:50:56;;;;;;;3.75;3.40;;;14.60;99.90;;;;;;5107992;28;20468;-71
2022/06/08 02:53:50;;;;;;;5.47;3.97;;;14.50;99.90;;;;;;5116761;27;20263;-70
2022/06/08 02:56:28;;;;;;;4.20;3.80;;;14.30;99.90;;;;;;5108715;28;20196;-70
2022/06/08 02:59:02;;;;;;;4.03;3.60;;;14.30;99.90;;;;;;5116139;27;20289;-70
2022/06/08 03:01:34;;;;;;;3.73;3.43;;;14.30;99.90;;;;;;5099063;28;20201;-70
2022/06/08 03:04:09;;;;;;;4.50;4.07;;;14.30;99.90;;;;;;5099163;28;20206;-70
2022/06/08 03:06:41;;;;;;;4.03;3.33;;;14.30;99.90;;;;;;5098305;27;20213;-70
2022/06/08 03:09:11;;;;;;;3.97;3.60;;;14.30;99.90;;;;;;5103216;27;20752;-70
2022/06/08 03:11:45;;;;;;;3.80;3.50;;;14.50;99.90;;;;;;5124563;27;20250;-71
2022/06/08 03:14:14;;;;;;;4.13;3.77;;;14.40;99.90;;;;;;5118199;27;20271;-70
2022/06/08 03:16:52;;;;;;;3.53;3.23;;;14.60;99.90;;;;;;5117221;28;20197;-71
2022/06/08 03:19:19;;;;;;;3.92;3.45;;;14.50;99.90;;;;;;5115521;28;20229;-71
2022/06/08 03:21:47;;;;;;;5.87;3.83;;;14.50;99.90;;;;;;5097607;28;20255;-71
2022/06/08 03:24:14;;;;;;;3.63;3.33;;;14.50;99.90;;;;;;5096810;28;20237;-73
2022/06/08 03:26:46;;;;;;;4.60;3.65;;;14.40;99.90;;;;;;5097137;28;20596;-73
2022/06/08 03:29:13;;;;;;;3.80;3.50;;;14.30;99.90;;;;;;5096441;28;20259;-73
2022/06/08 03:31:40;;;;;;;4.55;3.97;;;14.40;99.90;;;;;;5097901;28;20225;-73
2022/06/08 03:34:07;;;;;;;4.07;3.67;;;14.50;99.90;;;;;;5093368;28;20201;-73
2022/06/08 03:36:34;;;;;;;3.97;3.60;;;14.60;99.90;;;;;;5094505;28;20259;-73
2022/06/08 03:39:01;;;;;;;3.80;3.50;;;14.70;99.90;;;;;;5092911;28;20257;-73
2022/06/08 03:41:28;;;;;;;4.03;3.70;;;14.60;99.90;;;;;;5092295;28;20699;-73
2022/06/08 03:43:57;;;;;;;4.93;3.90;;;14.80;99.90;;;;;;5094083;28;20626;-73
2022/06/08 03:46:24;;;;;;;4.57;3.95;;;14.90;99.90;;;;;;5094115;28;20255;-73
2022/06/08 03:48:52;;;;;;;6.13;4.45;;;14.80;99.90;;;;;;5092464;28;20220;-73
2022/06/08 03:51:20;;;;;;;4.53;4.07;;;14.70;99.90;;;;;;5093610;28;20274;-73
2022/06/08 03:53:52;;;;;;;6.18;4.18;;;14.80;99.90;;;;;;5132539;27;20201;-73
2022/06/08 03:56:21;;;;;;;5.05;4.13;;;14.80;99.90;;;;;;5128058;27;20689;-73
2022/06/08 03:58:49;;;;;;;6.83;3.87;;;14.90;99.90;;;;;;5112743;28;20225;-73
2022/06/08 04:01:17;;;;;;;3.78;3.47;;;14.90;99.90;;;;;;5111059;28;20201;-73
2022/06/08 04:03:44;;;;;;;4.53;3.92;;;15.00;99.90;;;;;;5092196;28;20267;-73
2022/06/08 04:06:11;;;;;;;4.03;3.63;;;15.10;99.90;;;;;;5093599;28;20209;-73
2022/06/08 04:08:39;;;;;;;4.15;3.85;;;15.10;99.90;;;;;;5092041;28;20713;-73
2022/06/08 04:11:06;;;;;;;4.75;4.25;;;15.20;99.90;;;;;;5091455;28;20208;-73
2022/06/08 04:13:33;;;;;;;6.93;4.22;;;15.40;99.90;;;;;;5093600;28;20213;-73
2022/06/08 04:16:03;;;;;;;9.88;7.90;;;15.60;99.90;;;;;;5091936;28;20224;-73
2022/06/08 04:18:32;;;;;;;6.38;5.70;;;15.70;99.90;;;;;;5112195;28;20224;-73
2022/06/08 04:21:01;;;;;;;7.57;5.47;;;15.90;99.90;;;;;;5112628;28;20204;-73
2022/06/08 04:23:31;;;;;;;5.80;5.25;;;16.60;99.90;;;;;;5113757;28;20209;-73
2022/06/08 04:25:58;;;;;;;4.95;4.53;;;16.40;99.90;;;;;;5113872;28;20208;-73
2022/06/08 04:28:26;;;;;;;5.18;4.68;;;16.60;99.90;;;;;;5103491;28;20652;-74
2022/06/08 04:30:53;;;;;;;4.40;4.00;;;16.60;99.90;;;;;;5090792;28;20202;-73
2022/06/08 04:33:21;;;;;;;5.20;4.70;;;16.60;99.90;;;;;;5113627;27;20197;-73
2022/06/08 04:35:50;;;;;;;4.90;4.50;;;16.80;99.90;;;;;;5114382;27;20239;-73
2022/06/08 04:38:17;;;;;;;5.38;4.30;;;16.60;99.90;;;;;;5097048;28;20275;-73
2022/06/08 04:40:45;;;;;;;7.40;4.53;;;16.60;99.90;;;;;;5087515;28;20402;-73
2022/06/08 04:43:13;;;;;;;5.20;4.43;;;16.50;99.90;;;;;;5089734;28;20213;-73
2022/06/08 04:45:40;;;;;;;4.72;4.30;;;16.70;99.90;;;;;;5087772;28;20197;-73
2022/06/08 04:48:08;;;;;;;6.55;4.80;;;16.70;99.90;;;;;;5090938;28;20224;-73
2022/06/08 04:50:35;;;;;;;4.70;4.30;;;16.80;99.90;;;;;;5092273;28;20296;-73
2022/06/08 04:53:04;;;;;;;4.57;4.10;;;16.80;99.90;;;;;;5092893;28;20202;-73
2022/06/08 04:55:32;;;;;;;5.40;4.50;;;16.70;99.90;;;;;;5091969;28;20325;-73
2022/06/08 04:57:58;;;;;;;5.25;4.75;;;16.80;99.90;;;;;;5093007;28;20302;-73
2022/06/08 05:00:25;;;;;;;6.25;4.68;;;16.80;99.90;;;;;;5090928;28;20687;-73
2022/06/08 05:02:54;;;;;;;5.40;4.90;;;16.70;99.90;;;;;;5092658;28;20266;-73
2022/06/08 05:05:24;;;;;;;7.43;4.85;;;16.80;99.90;;;;;;5091103;28;20542;-73
2022/06/08 05:07:51;;;;;;;5.40;4.60;;;16.90;99.90;;;;;;5092592;28;20234;-73
2022/06/08 05:10:22;;;;;;;5.20;4.70;;;16.90;99.90;;;;;;5090865;28;20205;-73
2022/06/08 05:12:49;;;;;;;5.50;4.90;;;16.90;99.90;;;;;;5091619;28;20201;-73
2022/06/08 05:15:19;;;;;;;4.85;4.35;;;16.90;99.90;;;;;;5091255;28;20413;-73
2022/06/08 05:17:46;;;;;;;5.88;4.60;;;17.10;99.90;;;;;;5107000;28;20200;-73
2022/06/08 05:20:16;;;;;;;4.40;3.90;;;17.00;99.90;;;;;;5102499;28;20260;-73
2022/06/08 05:22:43;;;;;;;4.55;4.15;;;17.10;99.90;;;;;;5092555;28;20213;-73
2022/06/08 05:25:14;;;;;;;5.60;4.45;;;16.90;99.90;;;;;;5091790;28;20663;-73
2022/06/08 05:27:42;;;;;;;4.30;3.90;;;17.00;99.90;;;;;;5091727;28;20201;-73
2022/06/08 05:30:12;;;;;;;6.97;4.80;;;17.10;99.90;;;;;;5091051;28;20243;-73
2022/06/08 05:32:40;;;;;;;5.93;5.05;;;17.10;99.90;;;;;;5090637;28;20213;-73
2022/06/08 05:35:07;;;;;;;5.80;5.20;;;17.10;99.90;;;;;;5091718;28;20615;-73
2022/06/08 05:37:35;;;;;;;5.88;5.10;;;17.20;99.90;;;;;;5091752;28;20248;-73
2022/06/08 05:40:02;;;;;;;6.00;4.50;;;17.30;99.90;;;;;;5089697;28;20300;-73
2022/06/08 05:42:29;;;;;;;4.28;3.97;;;17.40;99.90;;;;;;5090810;28;20644;-73
2022/06/08 05:44:58;;;;;;;5.03;4.57;;;17.90;99.90;;;;;;5090940;28;20213;-73
2022/06/08 05:47:26;;;;;;;4.80;4.40;;;18.00;99.90;;;;;;5091317;28;20208;-73
2022/06/08 05:49:53;;;;;;;4.90;4.40;;;18.00;99.90;;;;;;5096833;28;20223;-73
2022/06/08 05:52:20;;;;;;;4.57;4.18;;;18.00;99.90;;;;;;5111501;28;20614;-73
2022/06/08 05:54:47;;;;;;;6.15;3.97;;;18.00;99.90;;;;;;5110704;28;20544;-73
2022/06/08 05:57:15;;;;;;;4.10;3.70;;;18.10;99.90;;;;;;5111916;28;20635;-73
2022/06/08 05:59:42;;;;;;;5.95;3.95;;;18.20;99.90;;;;;;5109862;28;20225;-73
2022/06/08 06:02:14;;;;;;;5.47;3.75;;;18.10;99.90;;;;;;5110523;28;20257;-73
2022/06/08 06:04:42;;;;;;;4.68;4.07;;;18.30;99.90;;;;;;5110579;28;20246;-73
2022/06/08 06:07:09;;;;;;;4.35;3.90;;;18.20;99.90;;;;;;5111939;28;20739;-73
2022/06/08 06:09:36;;;;;;;4.22;3.83;;;18.40;99.90;;;;;;5108840;28;20209;-73
2022/06/08 06:12:03;;;;;;;4.07;3.60;;;18.60;99.90;;;;;;5110810;28;20579;-73
2022/06/08 06:14:30;;;;;;;5.72;4.28;;;18.70;99.90;;;;;;5109616;28;20518;-72
2022/06/08 06:16:58;;;;;;;4.75;4.25;;;18.60;99.90;;;;;;5098195;28;20205;-73
2022/06/08 06:19:26;;;;;;;5.00;4.50;;;18.90;99.90;;;;;;5101496;28;20217;-73
2022/06/08 06:21:53;;;;;;;4.85;4.35;;;18.60;99.90;;;;;;5104618;28;20245;-73
2022/06/08 06:24:20;;;;;;;5.32;4.13;;;19.00;99.90;;;;;;5096712;28;20708;-73
2022/06/08 06:26:48;;;;;;;7.88;4.95;;;19.00;99.90;;;;;;5107927;28;20615;-72
2022/06/08 06:29:15;;;;;;;6.22;5.13;;;19.00;99.90;;;;;;5115387;27;20197;-73
2022/06/08 06:31:45;;;;;;;5.07;4.57;;;18.80;99.90;;;;;;5110131;28;20204;-73
2022/06/08 06:34:14;;;;;;;6.80;4.70;;;19.00;99.90;;;;;;5110766;28;20257;-73
2022/06/08 06:36:42;;;;;;;5.30;4.72;;;19.10;99.90;;;;;;5091058;28;20194;-73
2022/06/08 06:39:10;;;;;;;7.38;6.00;;;19.10;99.90;;;;;;5090014;28;20201;-74
2022/06/08 06:41:38;;;;;;;6.38;5.75;;;18.90;99.90;;;;;;5090009;28;20247;-73
2022/06/08 06:44:06;;;;;;;5.90;5.30;;;18.80;99.90;;;;;;5090460;28;20240;-73
2022/06/08 06:46:33;;;;;;;5.75;5.22;;;19.10;99.90;;;;;;5090187;28;20207;-73
2022/06/08 06:49:00;;;;;;;6.13;5.47;;;19.30;99.90;;;;;;5088778;28;20597;-73
2022/06/08 06:51:27;;;;;;;5.93;5.40;;;19.30;99.90;;;;;;5090682;28;20647;-73
2022/06/08 06:53:55;;;;;;;6.38;5.38;;;19.40;99.90;;;;;;5090509;28;20713;-73
2022/06/08 06:56:22;;;;;;;6.85;6.03;;;19.70;99.90;;;;;;5089905;28;20206;-72
2022/06/08 06:58:49;;;;;;;8.32;7.07;;;19.70;99.90;;;;;;5090587;28;20678;-72
2022/06/08 07:01:17;;;;;;;7.95;6.75;;;19.50;99.90;;;;;;5090182;28;20526;-73
2022/06/08 07:03:45;;;;;;;8.38;6.82;;;19.40;99.90;;;;;;5089449;28;20200;-73
2022/06/08 07:06:12;;;;;;;10.52;7.90;;;19.10;99.90;;;;;;5091025;28;20275;-72
2022/06/08 07:08:39;;;;;;;9.40;6.78;;;19.20;99.90;;;;;;5091150;28;20206;-72
2022/06/08 07:13:53;;;;;;;8.52;7.00;;;19.50;99.90;;;;;;5093822;28;20499;-73
2022/06/08 07:16:20;;;;;;;7.68;6.90;;;19.10;99.90;;;;;;5097652;28;20240;-72
2022/06/08 07:18:47;;;;;;;9.07;7.75;;;19.10;99.90;;;;;;5114902;28;21006;-73
2022/06/08 07:21:14;;;;;;;9.02;6.90;;;18.90;99.90;;;;;;5111726;28;20221;-72
2022/06/08 07:23:42;;;;;;;7.80;6.88;;;18.90;99.90;;;;;;5114552;28;20197;-73
2022/06/08 07:26:10;;;;;;;7.05;6.35;;;19.10;99.90;;;;;;5112002;28;20201;-73
2022/06/08 07:28:37;;;;;;;8.38;6.18;;;19.30;99.90;;;;;;5114438;28;20192;-72
2022/06/08 07:31:05;;;;;;;6.40;5.60;;;19.40;99.90;;;;;;5097711;28;20213;-73
2022/06/08 07:33:33;;;;;;;7.28;5.80;;;19.30;99.90;;;;;;5094622;28;20716;-73
2022/06/08 07:36:00;;;;;;;6.68;5.70;;;19.20;99.90;;;;;;5094630;28;20212;-72
2022/06/08 07:38:28;;;;;;;7.68;5.65;;;19.40;99.90;;;;;;5094718;28;20613;-73
2022/06/08 07:40:55;;;;;;;7.90;5.22;;;19.20;99.90;;;;;;5091415;28;20589;-73
2022/06/08 07:43:24;;;;;;;5.25;4.75;;;19.40;99.90;;;;;;5094035;28;20655;-73
2022/06/08 07:45:51;;;;;;;6.72;5.60;;;19.40;99.90;;;;;;5094062;28;20209;-73
2022/06/08 07:51:04;;;;;;;7.43;5.20;;;19.60;99.90;;;;;;5092515;28;20580;-72
2022/06/08 07:53:31;;;;;;;6.00;5.15;;;19.90;99.90;;;;;;5092953;28;20194;-73
2022/06/08 07:55:58;;;;;;;6.95;5.43;;;19.50;99.90;;;;;;5092841;28;20677;-73
2022/06/08 07:58:26;;;;;;;5.63;5.10;;;19.80;99.90;;;;;;5092763;28;20531;-73
2022/06/08 08:00:53;;;;;;;6.75;3.80;;;20.00;99.90;;;;;;5092795;28;20271;-73
2022/06/08 08:03:21;;;;;;;4.97;4.32;;;20.30;99.90;;;;;;5093696;28;20263;-72
2022/06/08 08:05:48;;;;;;;7.00;3.50;;;20.60;99.90;;;;;;5093311;28;20197;-72
2022/06/08 08:08:17;;;;;;;4.18;3.58;;;20.60;99.90;;;;;;5107528;28;20258;-72
2022/06/08 08:10:45;;;;;;;3.85;3.30;;;20.50;99.90;;;;;;5112044;28;20279;-73
2022/06/08 08:13:13;;;;;;;4.20;3.85;;;20.60;99.90;;;;;;5108188;28;20221;-73
2022/06/08 08:15:43;;;;;;;3.50;3.17;;;20.50;99.90;;;;;;5112492;28;20201;-73
2022/06/08 08:18:11;;;;;;;3.83;3.30;;;20.40;99.90;;;;;;5113934;28;20244;-73
2022/06/08 08:20:38;;;;;;;3.38;3.08;;;20.50;99.90;;;;;;5112246;28;20686;-73
2022/06/08 08:23:06;;;;;;;3.35;3.05;;;20.50;99.90;;;;;;5113933;28;20193;-73
2022/06/08 08:25:33;;;;;;;2.97;2.72;;;20.70;99.90;;;;;;5112705;28;20208;-73
2022/06/08 08:28:00;;;;;;;3.75;2.78;;;20.60;99.90;;;;;;5113193;28;20205;-73
2022/06/08 08:30:30;;;;;;;4.28;3.30;;;20.50;99.90;;;;;;5112867;28;20205;-73
2022/06/08 08:32:58;;;;;;;3.47;3.17;;;20.60;99.90;;;;;;5113304;28;20209;-72
2022/06/08 08:35:26;;;;;;;4.10;3.30;;;20.60;99.90;;;;;;5113235;28;20832;-73
2022/06/08 08:37:56;;;;;;;3.28;3.05;;;20.70;99.90;;;;;;5113380;28;20201;-73
2022/06/08 08:40:41;;;;;;;3.03;2.72;;;20.80;99.90;;;;;;5112402;28;20221;-72
2022/06/08 08:43:10;;;;;;;3.38;3.08;;;20.90;99.90;;;;;;5113261;28;20295;-73
2022/06/08 08:45:50;;;;;;;3.10;2.90;;;21.00;99.90;;;;;;5113403;28;20197;-72
2022/06/08 08:48:27;;;;;;;4.32;2.80;;;21.10;99.30;;;;;;5112497;28;20208;-73
2022/06/08 08:51:02;;;;;;;2.90;2.70;;;21.10;96.30;;;;;;5111622;28;20208;-73
2022/06/08 08:53:38;;;;;;;2.83;2.63;;;21.30;98.20;;;;;;5112419;28;20203;-73
2022/06/08 08:56:22;;;;;;;2.90;2.60;;;21.20;96.00;;;;;;5112665;28;20204;-73
2022/06/08 08:58:51;;;;;;;3.80;2.80;;;21.40;94.70;;;;;;5112038;28;20189;-73
2022/06/08 09:01:21;;;;;;;5.38;2.63;;;21.50;93.70;;;;;;5112514;28;20319;-73
2022/06/08 09:03:55;;;;;;;2.58;2.38;;;21.50;91.60;;;;;;5112821;28;20576;-73
2022/06/08 09:06:27;;;;;;;2.75;2.55;;;21.50;90.00;;;;;;5110441;28;20249;-73
2022/06/08 09:09:00;;;;;;;4.15;2.47;;;21.90;90.70;;;;;;5098443;28;20705;-73
2022/06/08 09:11:33;;;;;;;2.80;2.60;;;22.20;86.80;;;;;;5112413;28;20442;-73
2022/06/08 09:14:05;;;;;;;3.08;2.78;;;22.30;89.60;;;;;;5094179;28;20221;-73
2022/06/08 09:16:37;;;;;;;2.67;2.47;;;22.50;87.30;;;;;;5092271;28;20279;-73
2022/06/08 09:19:30;;;;;;;2.95;2.42;;;22.50;87.70;;;;;;5091151;28;20250;-73
2022/06/08 09:22:14;;;;;;;2.65;2.45;;;22.50;85.50;;;;;;5092793;28;20197;-73
2022/06/08 09:24:47;;;;;;;3.17;2.30;;;22.60;80.20;;;;;;5092580;28;20202;-73
2022/06/08 09:27:17;;;;;;;2.40;2.22;;;22.70;81.40;;;;;;5092403;28;20258;-73
2022/06/08 09:29:50;;;;;;;2.40;2.20;;;22.80;79.10;;;;;;5090524;28;20237;-73
2022/06/08 09:32:33;;;;;;;2.35;2.20;;;23.30;78.50;;;;;;5113179;27;20204;-73
2022/06/08 09:35:04;;;;;;;2.63;2.40;;;23.20;73.80;;;;;;5121324;27;20205;-73
2022/06/08 09:37:32;;;;;;;2.38;2.20;;;22.80;73.20;;;;;;5112400;28;20205;-73
2022/06/08 09:40:02;;;;;;;2.55;2.35;;;23.10;71.40;;;;;;5110092;28;20273;-73
2022/06/08 09:42:43;;;;;;;2.03;1.92;;;23.40;70.00;;;;;;5098998;28;20648;-73
2022/06/08 09:45:28;;;;;;;3.55;2.40;;;24.10;67.90;;;;;;5092178;28;20193;-73
2022/06/08 09:54:10;;;;;;;2.97;2.72;;;24.20;65.30;;;;;;5049532;28;20266;-73
2022/06/08 09:56:54;;;;;;;4.10;2.35;;;24.00;57.90;;;;;;5048378;28;20263;-72
2022/06/08 09:59:37;;;;;;;2.35;2.17;;;24.20;58.50;;;;;;5089348;28;20197;-73
2022/06/08 10:02:15;;;;;;;2.70;2.20;;;24.00;57.20;;;;;;5110728;28;20220;-73
2022/06/08 10:04:55;;;;;;;2.33;2.20;;;24.50;53.40;;;;;;5111201;28;20200;-73
2022/06/08 10:07:32;;;;;;;2.20;2.03;;;24.80;54.30;;;;;;5111670;28;20260;-73
2022/06/08 10:10:24;;;;;;;2.25;1.92;;;24.70;51.50;;;;;;5110659;28;20197;-73
2022/06/08 10:12:57;;;;;;;2.47;2.28;;;24.50;52.10;;;;;;5091916;28;20216;-73
2022/06/08 10:15:31;;;;;;;2.35;2.15;;;25.10;51.40;;;;;;5090369;28;20197;-73
2022/06/08 10:18:06;;;;;;;2.25;1.90;;;25.00;48.90;;;;;;5099925;28;20226;-73
2022/06/08 10:20:37;;;;;;;2.72;2.20;;;25.20;50.50;;;;;;5096278;28;20220;-73
2022/06/08 10:23:19;;;;;;;3.15;2.10;;;25.10;48.60;;;;;;5098140;28;20569;-73
2022/06/08 10:25:52;;;;;;;2.15;2.05;;;25.20;46.60;;;;;;5101371;28;20255;-73
2022/06/08 10:28:26;;;;;;;2.15;2.00;;;25.40;47.80;;;;;;5111608;28;20655;-73
2022/06/08 10:30:57;;;;;;;2.65;2.00;;;25.00;45.80;;;;;;5109525;28;20329;-73
2022/06/08 10:33:33;;;;;;;4.35;2.22;;;25.70;49.20;;;;;;5110166;28;20288;-73
2022/06/08 10:36:02;;;;;;;2.78;2.50;;;25.40;48.40;;;;;;5094337;28;20231;-73
2022/06/08 10:38:33;;;;;;;3.05;2.35;;;24.80;43.60;;;;;;5091364;28;20255;-73
2022/06/08 10:43:59;;;;;;;2.70;2.50;;;26.00;44.90;;;;;;5094793;28;20189;-73
2022/06/08 10:46:32;;;;;;;3.42;2.63;;;25.30;46.60;;;;;;5095182;28;20252;-73
2022/06/08 10:48:59;;;;;;;2.50;2.30;;;25.30;45.80;;;;;;5092965;28;20209;-73
2022/06/08 10:51:39;;;;;;;2.35;2.15;;;24.80;45.60;;;;;;5094337;28;20197;-73
2022/06/08 10:54:54;;;;;;;2.95;2.20;;;24.80;42.90;;;;;;5094462;28;20205;-73
2022/06/08 10:58:03;;;;;;;2.90;2.33;;;25.70;40.90;;;;;;5012716;28;20274;-73
2022/06/08 11:00:58;;;;;;;2.65;2.40;;;25.80;39.80;;;;;;5093403;28;20334;-73
2022/06/08 11:03:55;;;;;;;2.90;2.25;;;25.20;40.00;;;;;;5094431;28;20198;-73
2022/06/08 11:06:55;;;;;;;2.50;2.38;;;25.80;42.30;;;;;;5094816;28;20206;-73
2022/06/08 11:09:48;;;;;;;2.45;2.25;;;26.60;40.10;;;;;;5113550;28;20223;-73
2022/06/08 11:12:30;;;;;;;2.40;2.20;;;26.00;38.20;;;;;;5110159;28;20200;-73
2022/06/08 11:14:59;;;;;;;3.30;2.83;;;26.60;36.60;;;;;;5113641;28;20209;-73
2022/06/08 11:17:30;;;;;;;2.10;2.00;;;26.40;35.90;;;;;;5110843;28;20284;-73
2022/06/08 11:20:04;;;;;;;2.55;2.35;;;25.00;37.50;;;;;;5107652;28;20551;-73
2022/06/08 11:22:37;;;;;;;2.20;2.05;;;25.10;37.50;;;;;;5094748;28;20681;-73
2022/06/08 11:25:12;;;;;;;2.40;2.22;;;25.10;38.70;;;;;;5093870;28;20241;-73
2022/06/08 11:27:40;;;;;;;2.20;2.10;;;24.70;37.40;;;;;;5092886;28;20236;-73
2022/06/08 11:30:48;;;;;;;5.78;2.28;;;24.70;39.90;;;;;;5093498;28;20284;-73
2022/06/08 11:33:17;;;;;;;2.03;1.80;;;24.70;38.60;;;;;;5113247;28;20197;-73
2022/06/08 11:36:08;;;;;;;1.88;1.77;;;24.10;36.10;;;;;;5114850;28;20213;-73
2022/06/08 11:38:48;;;;;;;4.90;2.10;;;23.90;38.70;;;;;;5097526;28;20209;-73
2022/06/08 11:41:34;;;;;;;2.17;2.08;;;24.30;41.60;;;;;;5091783;28;20201;-73
2022/06/08 11:44:11;;;;;;;3.08;2.28;;;24.40;43.30;;;;;;5094277;28;20209;-73
2022/06/08 11:46:40;;;;;;;2.17;2.08;;;24.40;42.10;;;;;;5093723;28;20209;-73
2022/06/08 11:49:30;;;;;;;3.33;2.00;;;24.20;40.60;;;;;;5092309;28;20651;-73
2022/06/08 11:51:57;;;;;;;2.08;1.88;;;23.80;43.00;;;;;;5092880;28;20658;-73
2022/06/08 11:54:27;;;;;;;2.22;2.13;;;24.20;44.10;;;;;;5094399;28;20247;-72
2022/06/08 11:57:05;;;;;;;2.85;2.08;;;24.30;45.80;;;;;;5114708;28;20568;-73
2022/06/08 11:59:37;;;;;;;2.72;2.20;;;24.20;46.20;;;;;;5112312;28;20715;-73
2022/06/08 12:02:18;;;;;;;2.83;2.63;;;24.50;43.90;;;;;;5113249;28;20232;-73
2022/06/08 12:04:49;;;;;;;2.42;2.28;;;25.00;45.20;;;;;;5113575;28;20702;-73
2022/06/08 12:07:44;;;;;;;1.95;1.85;;;24.80;43.90;;;;;;5112578;28;20201;-73
2022/06/08 12:10:15;;;;;;;2.10;2.00;;;24.80;44.50;;;;;;5091016;28;20251;-73
2022/06/08 12:12:45;;;;;;;2.53;1.92;;;24.80;43.00;;;;;;5093610;28;20676;-73
2022/06/08 12:15:43;;;;;;;2.13;2.03;;;24.90;42.60;;;;;;5093726;28;20281;-73
2022/06/08 12:18:38;;;;;;;2.58;2.10;;;24.80;38.70;;;;;;5092152;28;20213;-73
2022/06/08 12:21:28;;;;;;;2.95;2.15;;;24.70;41.10;;;;;;5092063;28;20659;-73
2022/06/08 12:24:21;;;;;;;2.20;1.88;;;24.90;38.60;;;;;;5091770;28;20198;-73
2022/06/08 12:26:59;;;;;;;1.85;1.75;;;25.30;38.00;;;;;;5092627;28;20213;-73
2022/06/08 12:29:33;;;;;;;1.88;1.77;;;25.70;33.40;;;;;;5092584;28;20288;-73
2022/06/08 12:32:03;;;;;;;2.22;2.03;;;25.20;40.50;;;;;;5092651;28;20292;-73
2022/06/08 12:34:39;;;;;;;2.42;1.70;;;25.50;44.50;;;;;;5093219;28;20206;-73
2022/06/08 12:37:35;;;;;;;4.50;2.38;;;25.90;44.80;;;;;;5112562;28;20196;-73
2022/06/08 12:40:31;;;;;;;1.90;1.80;;;25.70;42.00;;;;;;5112596;28;20254;-73
2022/06/08 12:43:13;;;;;;;1.90;1.80;;;26.70;35.60;;;;;;5108651;28;20674;-73
2022/06/08 12:45:44;;;;;;;1.83;1.70;;;26.60;30.40;;;;;;5112030;28;20193;-74
2022/06/08 12:48:29;;;;;;;2.35;2.15;;;25.70;35.50;;;;;;5094431;28;20209;-73
2022/06/08 12:50:58;;;;;;;1.90;1.80;;;25.50;36.60;;;;;;5092074;28;20210;-73
2022/06/08 12:53:25;;;;;;;2.00;1.90;;;26.20;36.70;;;;;;5097112;28;20208;-74
2022/06/08 12:55:53;;;;;;;2.20;1.90;;;26.60;33.60;;;;;;5110664;27;20204;-73
2022/06/08 12:58:23;;;;;;;4.32;1.98;;;26.70;35.80;;;;;;5111415;28;20193;-73
2022/06/08 13:00:54;;;;;;;1.90;1.80;;;26.10;33.00;;;;;;5111270;28;20283;-73
2022/06/08 13:03:25;;;;;;;2.80;2.53;;;26.20;31.60;;;;;;5097306;27;20193;-73
2022/06/08 13:05:53;;;;;;;2.45;1.70;;;26.40;31.50;;;;;;5111177;28;20311;-73
2022/06/08 13:08:23;;;;;;;2.85;2.00;;;26.70;32.90;;;;;;5110830;28;20533;-73
2022/06/08 13:10:54;;;;;;;1.95;1.83;;;25.90;31.10;;;;;;5110843;28;20193;-73
2022/06/08 13:13:25;;;;;;;3.42;2.00;;;26.10;31.30;;;;;;5110281;28;20213;-70
2022/06/08 13:15:54;;;;;;;2.42;2.15;;;26.00;34.20;;;;;;5107098;27;20697;-69
2022/06/08 13:18:24;;;;;;;2.17;2.00;;;26.10;36.30;;;;;;5101774;28;20198;-70
2022/06/08 13:20:53;;;;;;;2.72;2.53;;;26.00;36.00;;;;;;5103841;28;20209;-70
2022/06/08 13:23:21;;;;;;;3.08;2.35;;;25.60;38.50;;;;;;5105381;28;20603;-70
2022/06/08 13:25:50;;;;;;;2.20;2.10;;;25.60;35.70;;;;;;5107155;28;20537;-70
2022/06/08 13:28:18;;;;;;;2.20;2.10;;;25.60;38.70;;;;;;5103615;28;20607;-69
2022/06/08 13:30:48;;;;;;;2.78;2.17;;;25.70;39.70;;;;;;5098351;28;20620;-70